Zim Chicago — A8SI9 — position and weather

sailwx.info

Track history (hours):
 
Tides and Currents Weather Stations Pressure Air Temp Water Temp Dewpoint Dewpoint Depression Visibility Wind Speed Wind Dir Waves Ship Positions

Zim Chicago

Last reported at 2015-May-01 09:10 UTC. Time now 2015-May-04 15:03 UTC.
Position N 22°34' E 114°17'.

Length 334 m; draft 11.4 m.

Type: Cargo ship. MMSI: 636014223.

Date/timePositionNaut miles runAvg speedWind from/ knotsBaromVisibWave heightAir tempDewpointWater temp
2015-May-01 09:10N 22°34' E 114°17'1 0.9
2015-May-01 08:10N 22°34' E 114°16'0 0.0
2015-May-01 03:16N 22°34' E 114°16'0 0.0
2015-May-01 02:16N 22°34' E 114°16'0 0.0
2015-May-01 01:15N 22°34' E 114°16'0 0.0
2015-May-01 00:27N 22°34' E 114°16'0 0.0
2015-Apr-30 23:33N 22°34' E 114°16'0 0.0
2015-Apr-30 20:33N 22°34' E 114°16'0 0.0
2015-Apr-30 19:33N 22°34' E 114°16'0 0.3
2015-Apr-30 18:20N 22°34' E 114°16'15 7.0
2015-Apr-30 16:11N 22°24' E 114°28'1117.3
2015-Apr-30 15:33N 22°13' E 114°27'1514.2
2015-Apr-30 14:31N 22°12' E 114°11'1210.9
2015-Apr-30 13:25N 22°21' E 114°03'910.9
2015-Apr-30 12:33N 22°25' E 113°53'8 2.5
2015-Apr-30 09:28N 22°32' E 113°51'0 0.0
2015-Apr-30 08:04N 22°32' E 113°51'0 0.0
2015-Apr-30 07:16N 22°32' E 113°51'0 0.0
2015-Apr-30 04:16N 22°32' E 113°51'0 0.0
2015-Apr-30 03:03N 22°32' E 113°51'3 6.1
2015-Apr-30 02:31N 22°29' E 113°52'1210.1
2015-Apr-30 01:17N 22°21' E 114°02'1111.9
2015-Apr-30 00:20N 22°13' E 114°10'5 6.9
2015-Apr-29 23:33N 22°09' E 114°15'9 8.6
2015-Apr-29 22:33N 22°09' E 114°24'1313.5
2015-Apr-29 21:33N 22°11' E 114°38'15719.0
2015-Apr-29 13:17N 22°59' E 117°20'1618.7
2015-Apr-29 12:26N 23°08' E 117°34'1719.2
2015-Apr-29 11:33N 23°18' E 117°49'2518.8
2015-Apr-29 10:12N 23°33' E 118°11'1319.0
2015-Apr-29 09:32N 23°41' E 118°22'1818.7
2015-Apr-29 08:33N 23°53' E 118°36'1919.1
2015-Apr-29 07:33N 24°06' E 118°52'2018.9
2015-Apr-29 06:29N 24°19' E 119°09'2518.9
2015-Apr-29 05:11N 24°38' E 119°27'31317.7
2015-Apr-28 11:30N 29°02' E 122°35'1718.1
2015-Apr-28 10:34N 29°18' E 122°29'1818.1
2015-Apr-28 09:34N 29°36' E 122°25'1313.0
2015-Apr-28 08:33N 29°46' E 122°17'1110.9
2015-Apr-28 07:34N 29°55' E 122°09'1312.8
2015-Apr-28 06:33N 29°57' E 121°54'4 1.8
2015-Apr-28 04:31N 29°57' E 121°50'0 0.0
2015-Apr-28 02:19N 29°57' E 121°50'0 0.0
2015-Apr-27 22:31N 29°57' E 121°50'0 0.0
2015-Apr-27 21:31N 29°57' E 121°50'0 0.0
2015-Apr-27 19:33N 29°57' E 121°50'3 2.4
2015-Apr-27 18:26N 29°57' E 121°53'0 0.1
2015-Apr-27 17:08N 29°57' E 121°53'0 0.0
2015-Apr-27 15:32N 29°57' E 121°53'0 0.0
2015-Apr-27 14:26N 29°57' E 121°53'0 0.2
2015-Apr-27 13:32N 29°57' E 121°53'0 0.1
2015-Apr-27 12:32N 29°57' E 121°53'0 0.1
2015-Apr-27 11:32N 29°57' E 121°53'1 0.1
2015-Apr-27 06:33N 29°57' E 121°54'1211.9
2015-Apr-27 05:33N 29°55' E 122°07'28 2.8
2015-Apr-26 19:30N 29°35' E 122°29'7 7.2
2015-Apr-26 18:31N 29°39' E 122°36'1010.3
2015-Apr-26 17:33N 29°41' E 122°47'44 7.4
2015-Apr-26 11:33N 30°25' E 122°51'1311.9
2015-Apr-26 10:26N 30°31' E 122°37'1111.7
2015-Apr-26 09:30N 30°32' E 122°25'9 9.7
2015-Apr-26 08:32N 30°33' E 122°14'10 9.7
2015-Apr-26 07:32N 30°37' E 122°04'0 0.0
2015-Apr-26 03:31N 30°37' E 122°04'0 0.0
2015-Apr-26 02:31N 30°37' E 122°04'0 0.0
2015-Apr-26 01:25N 30°37' E 122°04'0 0.0
2015-Apr-26 00:31N 30°37' E 122°04'0 0.0
2015-Apr-25 23:31N 30°37' E 122°04'0 0.0
2015-Apr-25 22:31N 30°37' E 122°04'0 0.0
2015-Apr-25 21:22N 30°37' E 122°04'0 0.0
2015-Apr-25 20:31N 30°37' E 122°04'0 0.0
2015-Apr-25 18:31N 30°37' E 122°04'0 0.0
2015-Apr-25 17:13N 30°37' E 122°04'0 0.5
2015-Apr-25 16:33N 30°37' E 122°03'0 0.2
2015-Apr-25 15:33N 30°37' E 122°03'1010.2
2015-Apr-25 14:33N 30°34' E 122°14'8 8.0
2015-Apr-25 13:33N 30°32' E 122°23'1010.1
2015-Apr-25 12:33N 30°31' E 122°35'7 5.9
2015-Apr-25 11:19N 30°27' E 122°42'0 0.1
2015-Apr-25 10:04N 30°27' E 122°42'0 0.1
2015-Apr-25 05:13N 30°27' E 122°42'0 0.1
2015-Apr-25 04:31N 30°27' E 122°42'0 0.1
2015-Apr-25 01:31N 30°27' E 122°42'0 0.0
2015-Apr-24 15:22N 30°27' E 122°42'0 0.1
2015-Apr-24 14:10N 30°27' E 122°42'0 0.1
2015-Apr-24 12:31N 30°27' E 122°42'0 0.0
2015-Apr-24 11:22N 30°27' E 122°42'0 0.0
2015-Apr-24 10:10N 30°27' E 122°42'0 0.0
2015-Apr-24 09:25N 30°27' E 122°42'0 0.2
2015-Apr-24 08:16N 30°27' E 122°42'0 0.1
2015-Apr-24 07:28N 30°27' E 122°42'0 0.1
2015-Apr-24 06:31N 30°27' E 122°42'0 0.0
2015-Apr-24 05:31N 30°27' E 122°42'0 0.0
2015-Apr-24 04:13N 30°27' E 122°42'0 0.1
2015-Apr-24 03:31N 30°27' E 122°42'0 0.2
2015-Apr-24 02:31N 30°27' E 122°42'0 0.2
2015-Apr-24 01:31N 30°27' E 122°42'0 0.1
2015-Apr-24 00:31N 30°27' E 122°42'0 0.1
2015-Apr-23 23:31N 30°27' E 122°42'0 0.0
2015-Apr-23 22:28N 30°27' E 122°42'0 0.0
2015-Apr-23 21:28N 30°27' E 122°42'0 0.1
2015-Apr-23 20:31N 30°27' E 122°42'0 0.1
2015-Apr-23 19:31N 30°27' E 122°42'0 0.1
2015-Apr-23 18:25N 30°27' E 122°42'0 0.0
2015-Apr-23 17:25N 30°27' E 122°42'0 0.0
2015-Apr-23 16:31N 30°27' E 122°42'0 0.1
2015-Apr-23 15:31N 30°27' E 122°42'0 0.1
2015-Apr-23 14:28N 30°27' E 122°42'0 0.1
2015-Apr-23 13:31N 30°27' E 122°42'0 0.1
2015-Apr-23 12:31N 30°27' E 122°42'0 0.1
2015-Apr-23 11:31N 30°27' E 122°42'0 0.0
2015-Apr-23 10:31N 30°27' E 122°42'0 0.0
2015-Apr-23 09:28N 30°27' E 122°42'0 0.1
2015-Apr-23 08:31N 30°27' E 122°42'0 0.1
2015-Apr-23 04:31N 30°27' E 122°42'0 0.1
2015-Apr-23 03:31N 30°27' E 122°42'0 0.1
2015-Apr-23 02:31N 30°27' E 122°42'0 0.2
2015-Apr-23 01:31N 30°27' E 122°42'0 0.1
2015-Apr-23 00:31N 30°27' E 122°42'0 0.1
2015-Apr-22 23:31N 30°27' E 122°42'0 0.0
2015-Apr-22 22:31N 30°27' E 122°42'0 0.0
2015-Apr-22 21:31N 30°27' E 122°42'0 0.0
2015-Apr-22 20:31N 30°27' E 122°42'0 0.1
2015-Apr-22 19:22N 30°27' E 122°42'0 0.2
2015-Apr-22 18:16N 30°27' E 122°42'0 0.1
2015-Apr-22 17:31N 30°27' E 122°42'0 0.0
2015-Apr-22 16:25N 30°27' E 122°42'0 0.1
2015-Apr-22 15:31N 30°27' E 122°42'0 0.1
2015-Apr-22 14:31N 30°27' E 122°42'0 0.1
2015-Apr-22 13:19N 30°27' E 122°42'0 0.1
2015-Apr-22 12:22N 30°27' E 122°42'0 0.1
2015-Apr-22 11:22N 30°27' E 122°42'0 0.0
2015-Apr-22 10:28N 30°27' E 122°42'0 0.0
2015-Apr-22 09:31N 30°27' E 122°42'0 0.0
2015-Apr-22 07:31N 30°27' E 122°42'0 0.1
2015-Apr-22 04:10N 30°27' E 122°42'0 0.1
2015-Apr-22 02:13N 30°27' E 122°42'0 0.2
2015-Apr-22 01:31N 30°27' E 122°42'0 0.1
2015-Apr-22 00:31N 30°27' E 122°42'0 0.1
2015-Apr-21 23:31N 30°27' E 122°42'0 0.0
2015-Apr-21 22:28N 30°27' E 122°42'0 0.1
2015-Apr-21 21:28N 30°27' E 122°42'0 0.2
2015-Apr-21 20:33N 30°27' E 122°42'7 6.6
2015-Apr-21 19:33N 30°25' E 122°50'1111.0
2015-Apr-21 18:31N 30°18' E 122°60'9 9.4
2015-Apr-21 17:33N 30°12' E 123°08'1211.8
2015-Apr-21 16:34N 30°01' E 123°10'1313.2
2015-Apr-21 15:33N 29°47' E 123°09'1613.0
2015-Apr-21 14:18N 29°33' E 122°60'1012.5
2015-Apr-21 13:30N 29°24' E 122°56'1212.4
2015-Apr-21 12:33N 29°13' E 122°51'1512.3
2015-Apr-21 11:22N 28°60' E 122°44'  
Track history (hours):
 
Tides and Currents Weather Stations Pressure Air Temp Water Temp Dewpoint Dewpoint Depression Visibility Wind Speed Wind Dir Waves Ship Positions

Zim Chicago

Last reported at 2015-May-01 09:10 UTC. Time now 2015-May-04 15:03 UTC.
Position N 22°34' E 114°17'.

Length 334 m; draft 11.4 m.

Type: Cargo ship. MMSI: 636014223.

Date/timePositionNaut miles runAvg speedWind from/ knotsBaromVisibWave heightAir tempDewpointWater temp
2015-May-01 09:10N 22°34' E 114°17'1 0.9
2015-May-01 08:10N 22°34' E 114°16'0 0.0
2015-May-01 03:16N 22°34' E 114°16'0 0.0
2015-May-01 02:16N 22°34' E 114°16'0 0.0
2015-May-01 01:15N 22°34' E 114°16'0 0.0
2015-May-01 00:27N 22°34' E 114°16'0 0.0
2015-Apr-30 23:33N 22°34' E 114°16'0 0.0
2015-Apr-30 20:33N 22°34' E 114°16'0 0.0
2015-Apr-30 19:33N 22°34' E 114°16'0 0.3
2015-Apr-30 18:20N 22°34' E 114°16'15 7.0
2015-Apr-30 16:11N 22°24' E 114°28'1117.3
2015-Apr-30 15:33N 22°13' E 114°27'1514.2
2015-Apr-30 14:31N 22°12' E 114°11'1210.9
2015-Apr-30 13:25N 22°21' E 114°03'910.9
2015-Apr-30 12:33N 22°25' E 113°53'8 2.5
2015-Apr-30 09:28N 22°32' E 113°51'0 0.0
2015-Apr-30 08:04N 22°32' E 113°51'0 0.0
2015-Apr-30 07:16N 22°32' E 113°51'0 0.0
2015-Apr-30 04:16N 22°32' E 113°51'0 0.0
2015-Apr-30 03:03N 22°32' E 113°51'3 6.1
2015-Apr-30 02:31N 22°29' E 113°52'1210.1
2015-Apr-30 01:17N 22°21' E 114°02'1111.9
2015-Apr-30 00:20N 22°13' E 114°10'5 6.9
2015-Apr-29 23:33N 22°09' E 114°15'9 8.6
2015-Apr-29 22:33N 22°09' E 114°24'1313.5
2015-Apr-29 21:33N 22°11' E 114°38'15719.0
2015-Apr-29 13:17N 22°59' E 117°20'1618.7
2015-Apr-29 12:26N 23°08' E 117°34'1719.2
2015-Apr-29 11:33N 23°18' E 117°49'2518.8
2015-Apr-29 10:12N 23°33' E 118°11'1319.0
2015-Apr-29 09:32N 23°41' E 118°22'1818.7
2015-Apr-29 08:33N 23°53' E 118°36'1919.1
2015-Apr-29 07:33N 24°06' E 118°52'2018.9
2015-Apr-29 06:29N 24°19' E 119°09'2518.9
2015-Apr-29 05:11N 24°38' E 119°27'31317.7
2015-Apr-28 11:30N 29°02' E 122°35'1718.1
2015-Apr-28 10:34N 29°18' E 122°29'1818.1
2015-Apr-28 09:34N 29°36' E 122°25'1313.0
2015-Apr-28 08:33N 29°46' E 122°17'1110.9
2015-Apr-28 07:34N 29°55' E 122°09'1312.8
2015-Apr-28 06:33N 29°57' E 121°54'4 1.8
2015-Apr-28 04:31N 29°57' E 121°50'0 0.0
2015-Apr-28 02:19N 29°57' E 121°50'0 0.0
2015-Apr-27 22:31N 29°57' E 121°50'0 0.0
2015-Apr-27 21:31N 29°57' E 121°50'0 0.0
2015-Apr-27 19:33N 29°57' E 121°50'3 2.4
2015-Apr-27 18:26N 29°57' E 121°53'0 0.1
2015-Apr-27 17:08N 29°57' E 121°53'0 0.0
2015-Apr-27 15:32N 29°57' E 121°53'0 0.0
2015-Apr-27 14:26N 29°57' E 121°53'0 0.2
2015-Apr-27 13:32N 29°57' E 121°53'0 0.1
2015-Apr-27 12:32N 29°57' E 121°53'0 0.1
2015-Apr-27 11:32N 29°57' E 121°53'1 0.1
2015-Apr-27 06:33N 29°57' E 121°54'1211.9
2015-Apr-27 05:33N 29°55' E 122°07'28 2.8
2015-Apr-26 19:30N 29°35' E 122°29'7 7.2
2015-Apr-26 18:31N 29°39' E 122°36'1010.3
2015-Apr-26 17:33N 29°41' E 122°47'44 7.4
2015-Apr-26 11:33N 30°25' E 122°51'1311.9
2015-Apr-26 10:26N 30°31' E 122°37'1111.7
2015-Apr-26 09:30N 30°32' E 122°25'9 9.7
2015-Apr-26 08:32N 30°33' E 122°14'10 9.7
2015-Apr-26 07:32N 30°37' E 122°04'0 0.0
2015-Apr-26 03:31N 30°37' E 122°04'0 0.0
2015-Apr-26 02:31N 30°37' E 122°04'0 0.0
2015-Apr-26 01:25N 30°37' E 122°04'0 0.0
2015-Apr-26 00:31N 30°37' E 122°04'0 0.0
2015-Apr-25 23:31N 30°37' E 122°04'0 0.0
2015-Apr-25 22:31N 30°37' E 122°04'0 0.0
2015-Apr-25 21:22N 30°37' E 122°04'0 0.0
2015-Apr-25 20:31N 30°37' E 122°04'0 0.0
2015-Apr-25 18:31N 30°37' E 122°04'0 0.0
2015-Apr-25 17:13N 30°37' E 122°04'0 0.5
2015-Apr-25 16:33N 30°37' E 122°03'0 0.2
2015-Apr-25 15:33N 30°37' E 122°03'1010.2
2015-Apr-25 14:33N 30°34' E 122°14'8 8.0
2015-Apr-25 13:33N 30°32' E 122°23'1010.1
2015-Apr-25 12:33N 30°31' E 122°35'7 5.9
2015-Apr-25 11:19N 30°27' E 122°42'0 0.1
2015-Apr-25 10:04N 30°27' E 122°42'0 0.1
2015-Apr-25 05:13N 30°27' E 122°42'0 0.1
2015-Apr-25 04:31N 30°27' E 122°42'0 0.1
2015-Apr-25 01:31N 30°27' E 122°42'0 0.0
2015-Apr-24 15:22N 30°27' E 122°42'0 0.1
2015-Apr-24 14:10N 30°27' E 122°42'0 0.1
2015-Apr-24 12:31N 30°27' E 122°42'0 0.0
2015-Apr-24 11:22N 30°27' E 122°42'0 0.0
2015-Apr-24 10:10N 30°27' E 122°42'0 0.0
2015-Apr-24 09:25N 30°27' E 122°42'0 0.2
2015-Apr-24 08:16N 30°27' E 122°42'0 0.1
2015-Apr-24 07:28N 30°27' E 122°42'0 0.1
2015-Apr-24 06:31N 30°27' E 122°42'0 0.0
2015-Apr-24 05:31N 30°27' E 122°42'0 0.0
2015-Apr-24 04:13N 30°27' E 122°42'0 0.1
2015-Apr-24 03:31N 30°27' E 122°42'0 0.2
2015-Apr-24 02:31N 30°27' E 122°42'0 0.2
2015-Apr-24 01:31N 30°27' E 122°42'0 0.1
2015-Apr-24 00:31N 30°27' E 122°42'0 0.1
2015-Apr-23 23:31N 30°27' E 122°42'0 0.0
2015-Apr-23 22:28N 30°27' E 122°42'0 0.0
2015-Apr-23 21:28N 30°27' E 122°42'0 0.1
2015-Apr-23 20:31N 30°27' E 122°42'0 0.1
2015-Apr-23 19:31N 30°27' E 122°42'0 0.1
2015-Apr-23 18:25N 30°27' E 122°42'0 0.0
2015-Apr-23 17:25N 30°27' E 122°42'0 0.0
2015-Apr-23 16:31N 30°27' E 122°42'0 0.1
2015-Apr-23 15:31N 30°27' E 122°42'0 0.1
2015-Apr-23 14:28N 30°27' E 122°42'0 0.1
2015-Apr-23 13:31N 30°27' E 122°42'0 0.1
2015-Apr-23 12:31N 30°27' E 122°42'0 0.1
2015-Apr-23 11:31N 30°27' E 122°42'0 0.0
2015-Apr-23 10:31N 30°27' E 122°42'0 0.0
2015-Apr-23 09:28N 30°27' E 122°42'0 0.1
2015-Apr-23 08:31N 30°27' E 122°42'0 0.1
2015-Apr-23 04:31N 30°27' E 122°42'0 0.1
2015-Apr-23 03:31N 30°27' E 122°42'0 0.1
2015-Apr-23 02:31N 30°27' E 122°42'0 0.2
2015-Apr-23 01:31N 30°27' E 122°42'0 0.1
2015-Apr-23 00:31N 30°27' E 122°42'0 0.1
2015-Apr-22 23:31N 30°27' E 122°42'0 0.0
2015-Apr-22 22:31N 30°27' E 122°42'0 0.0
2015-Apr-22 21:31N 30°27' E 122°42'0 0.0
2015-Apr-22 20:31N 30°27' E 122°42'0 0.1
2015-Apr-22 19:22N 30°27' E 122°42'0 0.2
2015-Apr-22 18:16N 30°27' E 122°42'0 0.1
2015-Apr-22 17:31N 30°27' E 122°42'0 0.0
2015-Apr-22 16:25N 30°27' E 122°42'0 0.1
2015-Apr-22 15:31N 30°27' E 122°42'0 0.1
2015-Apr-22 14:31N 30°27' E 122°42'0 0.1
2015-Apr-22 13:19N 30°27' E 122°42'0 0.1
2015-Apr-22 12:22N 30°27' E 122°42'0 0.1
2015-Apr-22 11:22N 30°27' E 122°42'0 0.0
2015-Apr-22 10:28N 30°27' E 122°42'0 0.0
2015-Apr-22 09:31N 30°27' E 122°42'0 0.0
2015-Apr-22 07:31N 30°27' E 122°42'0 0.1
2015-Apr-22 04:10N 30°27' E 122°42'0 0.1
2015-Apr-22 02:13N 30°27' E 122°42'0 0.2
2015-Apr-22 01:31N 30°27' E 122°42'0 0.1
2015-Apr-22 00:31N 30°27' E 122°42'0 0.1
2015-Apr-21 23:31N 30°27' E 122°42'0 0.0
2015-Apr-21 22:28N 30°27' E 122°42'0 0.1
2015-Apr-21 21:28N 30°27' E 122°42'0 0.2
2015-Apr-21 20:33N 30°27' E 122°42'7 6.6
2015-Apr-21 19:33N 30°25' E 122°50'1111.0
2015-Apr-21 18:31N 30°18' E 122°60'9 9.4
2015-Apr-21 17:33N 30°12' E 123°08'1211.8
2015-Apr-21 16:34N 30°01' E 123°10'1313.2
2015-Apr-21 15:33N 29°47' E 123°09'1613.0
2015-Apr-21 14:18N 29°33' E 122°60'1012.5
2015-Apr-21 13:30N 29°24' E 122°56'1212.4
2015-Apr-21 12:33N 29°13' E 122°51'1512.3
2015-Apr-21 11:22N 28°60' E 122°44'  

Dump ship's entire track history